Time;durP1;ratioP1;P1;durP2;ratioP2;P2;SDS_P1;SDS_P2;PMS_P1;PMS_P2;Temp;Humidity;BMP_temperature;BMP_pressure;BME280_temperature;BME280_humidity;BME280_pressure;Samples;Min_cycle;Max_cycle;Signal;HPM_P1;HPM_P2
2022/04/24 00:01:27;;;;;;;7.03;6.32;;;;;;;14.94;40.31;100143.66;5090921;28;20048;-61
2022/04/24 00:03:53;;;;;;;6.15;5.55;;;;;;;14.90;40.45;100139.81;5096218;28;20028;-62
2022/04/24 00:06:21;;;;;;;6.28;5.63;;;;;;;14.82;40.44;100144.09;5100482;28;20077;-62
2022/04/24 00:08:46;;;;;;;6.43;5.82;;;;;;;14.89;40.47;100140.91;5078724;28;20028;-61
2022/04/24 00:11:12;;;;;;;6.43;5.85;;;;;;;14.88;40.45;100142.88;5083477;28;20078;-62
2022/04/24 00:13:41;;;;;;;6.63;6.00;;;;;;;14.86;40.38;100141.53;5093452;28;20024;-61
2022/04/24 00:16:08;;;;;;;6.60;6.00;;;;;;;14.92;40.58;100143.13;5093364;27;20033;-61
2022/04/24 00:18:34;;;;;;;6.85;6.25;;;;;;;14.91;40.59;100135.88;5093116;28;20020;-62
2022/04/24 00:21:00;;;;;;;7.25;6.28;;;;;;;14.94;40.54;100135.28;5084632;28;20059;-62
2022/04/24 00:23:25;;;;;;;6.70;6.15;;;;;;;14.98;40.26;100139.97;5089137;28;20024;-62
2022/04/24 00:25:53;;;;;;;6.45;5.82;;;;;;;14.93;40.66;100128.84;5092733;28;20546;-62
2022/04/24 00:28:18;;;;;;;7.10;6.40;;;;;;;14.98;40.75;100127.97;5093748;28;20122;-61
2022/04/24 00:30:43;;;;;;;7.50;6.80;;;;;;;14.95;40.89;100134.13;5091749;28;20115;-61
2022/04/24 00:33:08;;;;;;;7.03;6.30;;;;;;;14.97;40.45;100115.94;5083058;28;20073;-61
2022/04/24 00:35:34;;;;;;;6.55;5.95;;;;;;;14.94;40.62;100119.34;5089943;28;20806;-61
2022/04/24 00:37:59;;;;;;;7.13;6.07;;;;;;;14.96;40.75;100114.25;5082247;28;20044;-61
2022/04/24 00:40:24;;;;;;;7.28;6.57;;;;;;;14.94;40.37;100119.34;5099528;28;24485;-62
2022/04/24 00:42:52;;;;;;;6.88;6.28;;;;;;;14.94;40.69;100122.13;5091569;28;20023;-61
2022/04/24 00:45:17;;;;;;;6.88;6.28;;;;;;;14.91;40.58;100122.72;5090683;28;20038;-62
2022/04/24 00:47:46;;;;;;;6.82;6.22;;;;;;;14.86;40.82;100114.41;5092352;28;20032;-61
2022/04/24 00:50:11;;;;;;;7.55;6.50;;;;;;;14.86;41.00;100116.38;5087867;28;20044;-62
2022/04/24 00:52:37;;;;;;;7.30;6.60;;;;;;;14.84;40.62;100116.66;5074169;28;20834;-61
2022/04/24 00:55:06;;;;;;;7.00;6.07;;;;;;;14.77;41.14;100116.19;5076623;28;20035;-62
2022/04/24 00:57:31;;;;;;;7.57;6.57;;;;;;;14.79;41.02;100119.53;5088406;28;20032;-62
2022/04/24 00:59:57;;;;;;;8.35;6.75;;;;;;;14.77;41.31;100113.41;5096373;28;20491;-61
2022/04/24 01:02:22;;;;;;;7.82;7.13;;;;;;;14.73;41.22;100115.13;5093171;28;20040;-62
2022/04/24 01:04:47;;;;;;;7.80;6.55;;;;;;;14.72;41.26;100119.88;5087308;28;20074;-65
2022/04/24 01:07:13;;;;;;;7.55;6.85;;;;;;;14.70;41.41;100121.34;5072561;28;20035;-61
2022/04/24 01:09:39;;;;;;;7.28;6.57;;;;;;;14.64;41.43;100114.97;5077226;28;20472;-61
2022/04/24 01:12:05;;;;;;;7.72;7.03;;;;;;;14.62;41.44;100121.97;5083592;28;20040;-64
2022/04/24 01:14:31;;;;;;;7.10;6.50;;;;;;;14.59;41.24;100125.38;5091491;28;20097;-62
2022/04/24 01:17:00;;;;;;;7.20;6.50;;;;;;;14.56;41.57;100114.81;5087258;28;20078;-62
2022/04/24 01:19:26;;;;;;;7.93;6.93;;;;;;;14.61;41.53;100123.09;5088317;28;20807;-67
2022/04/24 01:21:52;;;;;;;7.30;6.60;;;;;;;14.58;41.63;100118.97;5099796;28;20038;-61
2022/04/24 01:24:20;;;;;;;8.00;6.68;;;;;;;14.51;41.84;100121.28;5097478;28;20510;-61
2022/04/24 01:26:46;;;;;;;7.80;7.10;;;;;;;14.53;42.11;100127.38;5095483;28;20024;-65
2022/04/24 01:29:12;;;;;;;7.65;6.82;;;;;;;14.52;41.82;100125.72;5107190;28;20089;-61
2022/04/24 01:31:38;;;;;;;7.68;6.50;;;;;;;14.46;41.96;100122.16;5079377;28;20025;-62
2022/04/24 01:34:03;;;;;;;7.57;6.80;;;;;;;14.38;41.80;100128.38;5088590;28;20020;-61
2022/04/24 01:36:29;;;;;;;7.57;6.90;;;;;;;14.37;42.14;100121.13;5091378;28;20388;-62
2022/04/24 01:38:54;;;;;;;7.88;7.13;;;;;;;14.41;42.20;100127.75;5073969;28;20020;-62
2022/04/24 01:41:20;;;;;;;7.55;6.85;;;;;;;14.39;41.86;100127.25;5090891;28;20060;-63
2022/04/24 01:43:46;;;;;;;7.55;6.68;;;;;;;14.38;41.78;100124.72;5089278;28;20028;-61
2022/04/24 01:46:15;;;;;;;9.35;7.40;;;;;;;14.31;42.34;100118.69;5107770;28;20032;-62
2022/04/24 01:48:41;;;;;;;7.72;6.93;;;;;;;14.30;42.05;100126.22;5088480;27;20034;-61
2022/04/24 01:51:08;;;;;;;8.70;6.68;;;;;;;14.25;42.42;100129.91;5090210;28;20099;-62
2022/04/24 01:53:35;;;;;;;7.35;6.65;;;;;;;14.16;42.27;100126.09;5111901;27;20084;-62
2022/04/24 01:56:03;;;;;;;7.82;7.03;;;;;;;14.15;42.87;100132.81;5090861;28;20119;-62
2022/04/24 01:58:29;;;;;;;7.47;6.78;;;;;;;14.18;42.24;100125.78;5081820;28;20029;-61
2022/04/24 02:00:58;;;;;;;8.57;7.15;;;;;;;14.21;42.32;100126.03;5093339;28;20044;-62
2022/04/24 02:03:26;;;;;;;7.82;7.07;;;;;;;14.17;42.28;100124.13;5097721;28;20374;-61
2022/04/24 02:05:52;;;;;;;7.70;7.00;;;;;;;14.20;42.50;100127.16;5085397;28;20099;-61
2022/04/24 02:08:17;;;;;;;9.10;7.40;;;;;;;14.23;42.04;100126.59;5091104;28;20432;-61
2022/04/24 02:10:42;;;;;;;9.43;7.40;;;;;;;14.16;42.17;100123.31;5089929;28;20475;-61
2022/04/24 02:13:08;;;;;;;7.53;6.82;;;;;;;14.17;42.12;100127.75;5090816;28;20032;-63
2022/04/24 02:15:34;;;;;;;7.80;6.85;;;;;;;14.16;42.10;100117.72;5074449;28;20123;-62
2022/04/24 02:17:59;;;;;;;7.38;6.68;;;;;;;14.16;42.36;100119.69;5090271;28;20032;-61
2022/04/24 02:20:24;;;;;;;8.10;7.30;;;;;;;14.11;42.28;100119.72;5090583;27;20020;-62
2022/04/24 02:22:50;;;;;;;7.75;6.95;;;;;;;14.03;42.20;100123.16;5090749;28;20039;-61
2022/04/24 02:25:17;;;;;;;8.23;7.47;;;;;;;14.07;42.61;100118.63;5088628;28;20372;-62
2022/04/24 02:27:43;;;;;;;8.32;7.53;;;;;;;14.02;42.56;100124.28;5100487;28;20073;-61
2022/04/24 02:30:09;;;;;;;7.97;7.18;;;;;;;13.99;42.38;100126.56;5085287;28;20017;-61
2022/04/24 02:32:34;;;;;;;7.57;6.88;;;;;;;14.03;42.79;100131.50;5096744;28;20043;-61
2022/04/24 02:35:00;;;;;;;8.32;7.53;;;;;;;13.89;43.00;100117.44;5097767;28;20398;-61
2022/04/24 02:37:26;;;;;;;9.50;7.45;;;;;;;13.88;43.06;100124.97;5100801;28;20032;-61
2022/04/24 02:39:52;;;;;;;8.60;7.80;;;;;;;13.88;42.81;100124.97;5087366;28;20051;-61
2022/04/24 02:42:17;;;;;;;7.80;7.10;;;;;;;13.87;42.62;100126.09;5075770;28;20511;-61
2022/04/24 02:44:42;;;;;;;8.85;8.05;;;;;;;13.81;42.75;100124.47;5089971;28;20027;-61
2022/04/24 02:47:07;;;;;;;9.02;8.13;;;;;;;13.78;43.29;100125.06;5092807;28;20143;-62
2022/04/24 02:49:33;;;;;;;8.95;8.02;;;;;;;13.77;43.48;100126.19;5091180;28;20120;-61
2022/04/24 02:51:58;;;;;;;9.02;8.10;;;;;;;13.72;43.15;100126.25;5090526;28;20067;-62
2022/04/24 02:54:23;;;;;;;8.82;8.00;;;;;;;13.62;43.36;100129.94;5091190;28;20532;-61
2022/04/24 02:56:48;;;;;;;8.27;7.47;;;;;;;13.66;43.61;100136.59;5086830;28;20027;-61
2022/04/24 02:59:16;;;;;;;9.18;7.90;;;;;;;13.68;43.60;100133.53;5090863;28;20536;-61
2022/04/24 03:01:42;;;;;;;9.20;8.40;;;;;;;13.67;43.57;100134.63;5076719;28;20045;-62
2022/04/24 03:04:07;;;;;;;9.07;8.27;;;;;;;13.68;43.41;100133.53;5088554;28;20356;-61
2022/04/24 03:06:32;;;;;;;9.23;8.38;;;;;;;13.73;43.36;100130.69;5089473;28;20115;-61
2022/04/24 03:09:00;;;;;;;9.27;8.38;;;;;;;13.68;43.60;100134.34;5090580;28;20039;-61
2022/04/24 03:11:25;;;;;;;9.68;8.88;;;;;;;13.70;43.57;100128.47;5088956;28;20391;-61
2022/04/24 03:13:51;;;;;;;10.07;9.00;;;;;;;13.58;43.75;100131.63;5090590;28;20036;-61
2022/04/24 03:16:16;;;;;;;9.95;8.95;;;;;;;13.54;44.12;100127.75;5088704;28;20050;-61
2022/04/24 03:18:41;;;;;;;9.70;8.80;;;;;;;13.58;44.09;100128.84;5090658;28;20040;-61
2022/04/24 03:21:07;;;;;;;9.93;9.05;;;;;;;13.55;44.06;100131.38;5089221;28;20035;-61
2022/04/24 03:23:32;;;;;;;9.98;8.98;;;;;;;13.60;44.11;100142.50;5087673;28;20107;-61
2022/04/24 03:25:58;;;;;;;10.13;9.20;;;;;;;13.60;43.75;100137.75;5075628;28;20032;-61
2022/04/24 03:28:23;;;;;;;10.32;9.32;;;;;;;13.60;44.08;100131.38;5089293;28;20429;-61
2022/04/24 03:30:48;;;;;;;10.00;9.00;;;;;;;13.60;44.24;100134.16;5090232;28;20047;-61
2022/04/24 03:33:14;;;;;;;11.23;8.98;;;;;;;13.53;43.83;100134.47;5081192;28;20029;-61
2022/04/24 03:35:39;;;;;;;11.15;9.18;;;;;;;13.50;44.32;100144.22;5070364;28;20550;-61
2022/04/24 03:38:04;;;;;;;10.88;9.43;;;;;;;13.49;43.98;100137.00;5096224;28;20103;-61
2022/04/24 03:40:30;;;;;;;10.52;9.38;;;;;;;13.50;44.12;100137.84;5090405;28;20028;-61
2022/04/24 03:42:55;;;;;;;10.63;9.48;;;;;;;13.50;44.09;100138.66;5098095;28;20032;-61
2022/04/24 03:45:21;;;;;;;11.13;10.05;;;;;;;13.39;44.72;100139.84;5069750;28;20407;-61
2022/04/24 03:47:48;;;;;;;10.90;9.80;;;;;;;13.35;44.62;100141.56;5089867;28;20028;-61
2022/04/24 03:50:14;;;;;;;9.82;8.80;;;;;;;13.29;44.78;100137.16;5092297;28;20035;-61
2022/04/24 03:52:40;;;;;;;10.70;9.68;;;;;;;13.30;45.00;100135.19;5113874;28;20031;-61
2022/04/24 03:55:06;;;;;;;10.68;9.55;;;;;;;13.20;45.12;100139.69;5104962;28;20043;-61
2022/04/24 03:57:33;;;;;;;12.48;9.50;;;;;;;13.11;45.11;100135.81;5083792;28;20040;-61
2022/04/24 03:59:58;;;;;;;11.48;10.20;;;;;;;13.10;45.45;100134.16;5074356;28;20125;-61
2022/04/24 04:02:24;;;;;;;11.18;10.07;;;;;;;13.05;45.77;100141.69;5096282;28;20111;-61
2022/04/24 04:04:50;;;;;;;10.77;9.75;;;;;;;13.06;45.34;100140.59;5087521;28;20031;-61
2022/04/24 04:07:15;;;;;;;10.82;9.77;;;;;;;12.98;45.64;100137.28;5088270;28;20164;-61
2022/04/24 04:09:40;;;;;;;11.98;10.32;;;;;;;13.05;45.88;100136.13;5093570;28;20031;-61
2022/04/24 04:12:06;;;;;;;11.25;9.50;;;;;;;12.98;45.70;100134.50;5090406;28;20364;-61
2022/04/24 04:14:32;;;;;;;10.60;9.48;;;;;;;12.95;46.25;100135.06;5093051;28;20035;-61
2022/04/24 04:17:00;;;;;;;12.68;10.27;;;;;;;12.99;45.80;100141.75;5089617;28;20425;-61
2022/04/24 04:19:25;;;;;;;11.50;10.18;;;;;;;13.01;46.26;100135.91;5104912;28;20019;-61
2022/04/24 04:21:51;;;;;;;11.30;10.20;;;;;;;12.99;46.24;100146.47;5095595;28;20501;-61
2022/04/24 04:24:16;;;;;;;10.75;9.55;;;;;;;12.96;46.19;100138.69;5087322;28;20028;-60
2022/04/24 04:26:44;;;;;;;11.43;10.07;;;;;;;12.95;46.03;100146.22;5087247;28;20032;-61
2022/04/24 04:29:10;;;;;;;10.98;9.63;;;;;;;12.93;46.19;100153.19;5090739;28;20039;-61
2022/04/24 04:31:35;;;;;;;11.98;10.10;;;;;;;12.90;46.73;100154.59;5091725;28;20036;-61
2022/04/24 04:34:00;;;;;;;11.02;9.98;;;;;;;12.89;46.48;100149.31;5091492;28;20488;-61
2022/04/24 04:36:26;;;;;;;12.23;9.38;;;;;;;12.90;46.63;100154.59;5083257;28;20067;-61
2022/04/24 04:38:54;;;;;;;10.68;9.40;;;;;;;12.85;46.67;100153.78;5097986;28;20046;-61
2022/04/24 04:41:19;;;;;;;10.77;9.63;;;;;;;12.87;46.78;100155.16;5090979;28;20040;-61
2022/04/24 04:43:45;;;;;;;10.63;9.52;;;;;;;12.86;46.90;100150.72;5086878;28;20024;-61
2022/04/24 04:46:10;;;;;;;12.15;9.85;;;;;;;12.78;47.37;100159.69;5106040;28;20050;-61
2022/04/24 04:48:35;;;;;;;10.82;9.75;;;;;;;12.75;47.39;100168.59;5091376;28;20036;-61
2022/04/24 04:51:01;;;;;;;10.02;9.13;;;;;;;12.71;47.17;100167.50;5094016;28;20449;-61
2022/04/24 04:53:26;;;;;;;11.30;10.10;;;;;;;12.71;47.23;100182.25;5099595;28;20559;-61
2022/04/24 04:55:51;;;;;;;11.75;9.23;;;;;;;12.77;47.60;100169.13;5086240;28;20032;-61
2022/04/24 04:58:17;;;;;;;10.13;9.20;;;;;;;12.78;47.44;100170.81;5072024;28;20032;-61
2022/04/24 05:00:42;;;;;;;10.02;9.02;;;;;;;12.80;47.49;100167.72;5077520;28;20054;-61
2022/04/24 05:03:11;;;;;;;11.02;9.55;;;;;;;12.78;47.37;100171.66;5091494;28;20131;-62
2022/04/24 05:05:36;;;;;;;10.68;9.52;;;;;;;12.73;47.20;100179.16;5090194;28;20463;-61
2022/04/24 05:08:02;;;;;;;10.10;9.10;;;;;;;12.73;47.72;100173.59;5102444;28;20034;-61
2022/04/24 05:10:27;;;;;;;12.13;9.60;;;;;;;12.75;47.37;100182.50;5076802;28;20071;-61
2022/04/24 05:12:52;;;;;;;10.20;9.20;;;;;;;12.68;47.61;100187.53;5090960;28;20089;-61
2022/04/24 05:15:19;;;;;;;12.38;9.70;;;;;;;12.69;47.83;100192.00;5092752;28;20045;-60
2022/04/24 05:17:45;;;;;;;12.48;9.05;;;;;;;12.70;47.94;100197.28;5086170;28;20386;-61
2022/04/24 05:20:11;;;;;;;11.15;9.98;;;;;;;12.69;47.95;100195.63;5075121;28;20028;-61
2022/04/24 05:22:38;;;;;;;10.85;9.60;;;;;;;12.66;47.73;100201.75;5083077;28;20078;-61
2022/04/24 05:25:09;;;;;;;10.70;9.25;;;;;;;12.61;48.04;100209.28;5098948;28;20093;-61
2022/04/24 05:27:36;;;;;;;11.23;9.13;;;;;;;12.52;48.00;100211.81;5089615;28;20812;-62
2022/04/24 05:30:05;;;;;;;9.60;8.70;;;;;;;12.56;48.44;100203.72;5096373;28;20106;-61
2022/04/24 05:32:37;;;;;;;11.05;9.40;;;;;;;12.49;48.44;100199.28;5091160;28;20028;-61
2022/04/24 05:35:05;;;;;;;;;;;;;;;12.74;47.05;100215.09;5083079;28;20063;-61
2022/04/24 05:37:31;;;;;;;11.48;8.55;;;;;;;12.53;48.27;100205.94;5095702;28;20397;-61
2022/04/24 05:39:59;;;;;;;11.48;9.02;;;;;;;12.55;48.26;100213.22;5101933;27;20027;-61
2022/04/24 05:42:24;;;;;;;10.88;8.80;;;;;;;12.57;48.36;100210.97;5105537;28;20063;-61
2022/04/24 05:44:49;;;;;;;9.77;8.50;;;;;;;12.58;48.03;100221.00;5091123;28;20796;-61
2022/04/24 05:47:14;;;;;;;11.30;8.70;;;;;;;12.45;48.35;100214.03;5092154;28;20120;-61
2022/04/24 05:49:40;;;;;;;10.48;8.70;;;;;;;12.48;48.59;100216.28;5092041;28;20096;-61
2022/04/24 05:52:05;;;;;;;10.65;9.38;;;;;;;12.45;48.42;100214.88;5106655;28;20687;-61
2022/04/24 05:54:33;;;;;;;11.23;8.98;;;;;;;12.45;48.66;100211.25;5099251;28;20032;-61
2022/04/24 05:56:58;;;;;;;9.95;8.68;;;;;;;12.47;48.41;100226.56;5093562;28;20035;-60
2022/04/24 05:59:23;;;;;;;9.52;8.60;;;;;;;12.50;48.25;100217.66;5092606;28;20430;-61
2022/04/24 06:01:49;;;;;;;9.45;8.48;;;;;;;12.55;48.28;100224.34;5095439;28;20024;-61
2022/04/24 06:04:14;;;;;;;9.20;8.23;;;;;;;12.59;48.49;100222.66;5071881;28;20165;-61
2022/04/24 06:06:42;;;;;;;10.75;9.05;;;;;;;12.56;48.20;100223.22;5078489;28;20036;-61
2022/04/24 06:09:07;;;;;;;9.40;8.18;;;;;;;12.53;48.21;100231.00;5087207;28;20456;-61
2022/04/24 06:11:33;;;;;;;9.18;8.23;;;;;;;12.57;47.96;100222.94;5082508;28;20048;-61
2022/04/24 06:13:58;;;;;;;9.32;8.43;;;;;;;12.59;48.32;100239.38;5093226;28;20102;-61
2022/04/24 06:16:23;;;;;;;11.75;8.20;;;;;;;12.67;47.68;100236.00;5097115;28;20120;-61
2022/04/24 06:18:48;;;;;;;11.07;8.27;;;;;;;12.78;47.51;100244.06;5093005;28;20024;-61
2022/04/24 06:21:14;;;;;;;9.38;8.50;;;;;;;12.83;47.35;100234.84;5088081;28;20062;-63
2022/04/24 06:23:39;;;;;;;9.45;8.45;;;;;;;12.91;47.66;100230.63;5092238;28;20028;-62
2022/04/24 06:26:04;;;;;;;10.13;8.55;;;;;;;12.98;47.53;100225.59;5090600;28;20028;-61
2022/04/24 06:28:30;;;;;;;14.60;8.20;;;;;;;13.05;47.07;100233.63;5088538;28;20093;-61
2022/04/24 06:30:58;;;;;;;10.38;8.80;;;;;;;13.06;46.59;100232.53;5090046;28;20048;-61
2022/04/24 06:33:24;;;;;;;10.05;7.97;;;;;;;13.09;46.66;100238.38;5081556;28;20020;-61
2022/04/24 06:35:49;;;;;;;10.48;8.05;;;;;;;13.15;46.85;100237.22;5082504;28;20022;-61
2022/04/24 06:38:14;;;;;;;9.88;7.60;;;;;;;13.23;46.20;100233.03;5084732;28;20031;-61
2022/04/24 06:40:39;;;;;;;8.68;7.78;;;;;;;13.23;45.99;100236.66;5084200;28;20135;-62
2022/04/24 06:43:06;;;;;;;9.55;7.28;;;;;;;13.26;46.10;100238.06;5083763;28;20063;-61
2022/04/24 06:45:39;;;;;;;8.27;7.47;;;;;;;13.21;46.03;100236.09;5104605;28;20476;-62
2022/04/24 06:48:10;;;;;;;8.80;7.80;;;;;;;13.27;46.32;100234.13;5087025;28;20036;-61
2022/04/24 06:50:37;;;;;;;8.73;7.82;;;;;;;13.32;45.73;100239.69;5084802;28;20550;-63
2022/04/24 06:53:09;;;;;;;10.30;8.38;;;;;;;13.29;45.80;100240.28;5078248;28;20054;-62
2022/04/24 06:55:36;;;;;;;;;;;;;;;13.46;45.90;100240.72;5103569;28;20044;-63
2022/04/24 06:58:03;;;;;;;9.20;8.00;;;;;;;13.38;45.67;100254.44;5081620;28;19920;-62
2022/04/24 07:00:33;;;;;;;9.32;8.43;;;;;;;13.39;45.54;100244.94;5075092;28;20043;-61
2022/04/24 07:02:58;;;;;;;12.52;8.50;;;;;;;13.40;45.23;100241.88;5091469;28;20051;-63
2022/04/24 07:05:26;;;;;;;9.32;8.20;;;;;;;13.46;45.42;100243.50;5092438;28;20450;-63
2022/04/24 07:07:52;;;;;;;9.43;8.43;;;;;;;13.49;44.55;100242.94;5090313;28;20063;-62
2022/04/24 07:10:17;;;;;;;8.70;7.90;;;;;;;13.50;45.21;100241.81;5107413;28;20114;-63
2022/04/24 07:12:53;;;;;;;10.13;8.73;;;;;;;13.56;45.14;100241.78;5093342;28;20368;-61
2022/04/24 07:15:21;;;;;;;9.65;8.70;;;;;;;13.64;45.39;100242.03;5084593;28;20061;-63
2022/04/24 07:17:47;;;;;;;8.82;8.02;;;;;;;13.75;45.07;100252.00;5081377;28;20036;-62
2022/04/24 07:20:15;;;;;;;9.90;8.80;;;;;;;13.79;44.68;100249.44;5088186;28;20028;-62
2022/04/24 07:22:51;;;;;;;9.73;8.73;;;;;;;13.90;44.37;100245.47;5097296;28;20265;-63
2022/04/24 07:25:21;;;;;;;10.10;9.10;;;;;;;14.05;44.66;100254.84;5112179;27;20030;-62
2022/04/24 07:27:46;;;;;;;9.60;8.15;;;;;;;14.09;43.68;100245.59;5083089;28;20032;-63
2022/04/24 07:30:15;;;;;;;10.43;8.52;;;;;;;14.15;43.74;100255.63;5087492;28;20035;-63
2022/04/24 07:32:43;;;;;;;9.63;8.63;;;;;;;14.21;43.86;100250.81;5112062;28;20058;-64
2022/04/24 07:35:16;;;;;;;9.68;8.27;;;;;;;14.30;44.27;100259.38;5099280;28;20779;-65
2022/04/24 07:37:42;;;;;;;9.98;8.98;;;;;;;14.31;43.01;100258.28;5099416;28;20072;-66
2022/04/24 07:40:13;;;;;;;8.98;8.07;;;;;;;14.36;43.05;100256.25;5099224;28;20049;-67
2022/04/24 07:42:45;;;;;;;10.48;9.00;;;;;;;14.42;42.97;100262.63;5096699;27;20506;-66
2022/04/24 07:45:10;;;;;;;17.02;8.65;;;;;;;14.51;43.40;100265.66;5098949;28;20036;-64
2022/04/24 07:47:35;;;;;;;10.75;9.05;;;;;;;14.59;43.15;100251.88;5099414;28;20027;-65
2022/04/24 07:50:01;;;;;;;9.73;8.77;;;;;;;14.69;42.40;100259.31;5090969;28;20059;-64
2022/04/24 07:52:26;;;;;;;9.02;8.18;;;;;;;14.73;42.06;100252.00;5109260;28;20038;-64
2022/04/24 07:54:51;;;;;;;9.63;8.70;;;;;;;14.81;42.55;100256.94;5107546;28;20455;-61
2022/04/24 07:57:17;;;;;;;10.23;8.98;;;;;;;14.82;41.77;100257.81;5093698;28;20032;-62
2022/04/24 07:59:43;;;;;;;13.50;8.70;;;;;;;14.90;42.46;100258.00;5105003;28;20061;-62
2022/04/24 08:02:10;;;;;;;9.68;8.52;;;;;;;15.04;42.71;100260.06;5101378;27;20032;-64
2022/04/24 08:04:35;;;;;;;9.63;8.57;;;;;;;15.20;42.17;100264.34;5095401;28;20074;-64
2022/04/24 08:07:01;;;;;;;9.38;8.48;;;;;;;15.32;41.89;100270.31;5099018;28;20036;-68
2022/04/24 08:09:26;;;;;;;10.50;8.80;;;;;;;15.36;41.21;100253.78;5090728;28;20050;-64
2022/04/24 08:11:51;;;;;;;9.65;8.65;;;;;;;15.39;40.64;100268.00;5085689;27;20025;-64
2022/04/24 08:14:19;;;;;;;10.07;8.57;;;;;;;15.39;40.81;100270.78;5096657;28;20047;-64
2022/04/24 08:16:45;;;;;;;10.05;9.05;;;;;;;15.44;40.89;100270.75;5097901;28;20042;-65
2022/04/24 08:19:13;;;;;;;10.20;8.38;;;;;;;15.54;41.19;100268.94;5100236;28;20028;-65
2022/04/24 08:21:38;;;;;;;12.32;8.77;;;;;;;15.63;40.59;100264.34;5084696;28;20047;-62
2022/04/24 08:24:04;;;;;;;12.00;8.73;;;;;;;15.77;40.54;100262.50;5089546;28;20464;-63
2022/04/24 08:26:30;;;;;;;13.93;9.10;;;;;;;15.84;40.64;100270.50;5096260;28;20038;-61
2022/04/24 08:28:55;;;;;;;10.23;9.02;;;;;;;15.91;39.83;100268.97;5090077;28;20024;-63
2022/04/24 08:31:20;;;;;;;14.43;9.38;;;;;;;15.97;40.16;100266.94;5099883;28;20031;-62
2022/04/24 08:33:46;;;;;;;19.58;9.65;;;;;;;16.02;40.12;100264.06;5089787;28;20024;-64
2022/04/24 08:36:11;;;;;;;12.63;8.32;;;;;;;16.09;39.94;100269.28;5078892;28;20149;-63
2022/04/24 08:38:36;;;;;;;15.00;9.20;;;;;;;16.15;39.88;100268.06;5083661;28;20028;-65
2022/04/24 08:41:01;;;;;;;12.43;9.23;;;;;;;16.26;39.85;100279.91;5083720;28;20027;-64
2022/04/24 08:43:27;;;;;;;10.02;9.07;;;;;;;16.27;39.17;100275.97;5086481;28;20539;-63
2022/04/24 08:45:53;;;;;;;10.85;9.68;;;;;;;16.32;39.38;100279.53;5087539;28;20028;-63
2022/04/24 08:48:19;;;;;;;12.43;10.27;;;;;;;16.28;38.90;100275.69;5090559;28;20501;-63
2022/04/24 08:50:46;;;;;;;11.18;9.77;;;;;;;16.33;39.10;100281.19;5084925;28;20105;-64
2022/04/24 08:53:12;;;;;;;11.50;9.52;;;;;;;16.41;39.37;100272.09;5087662;28;20028;-64
2022/04/24 08:55:38;;;;;;;11.02;9.90;;;;;;;16.49;38.62;100272.53;5087902;28;20085;-64
2022/04/24 08:58:04;;;;;;;9.32;5.93;;;;;;;16.72;42.84;100279.97;5085093;28;20384;-62
2022/04/24 09:00:29;;;;;;;10.75;9.65;;;;;;;16.76;39.30;100286.66;5090432;28;20137;-61
2022/04/24 09:02:57;;;;;;;12.50;9.85;;;;;;;16.77;38.16;100282.69;5090350;28;20484;-62
2022/04/24 09:05:23;;;;;;;11.73;9.80;;;;;;;16.82;38.25;100282.63;5086427;28;20085;-67
2022/04/24 09:07:52;;;;;;;11.27;9.82;;;;;;;16.93;38.53;100281.25;5088515;28;20043;-64
2022/04/24 09:10:17;;;;;;;14.93;10.07;;;;;;;17.02;37.80;100277.78;5088254;28;20103;-66
2022/04/24 09:12:43;;;;;;;16.75;10.68;;;;;;;17.09;37.87;100287.41;5094065;28;20108;-64
2022/04/24 09:15:08;;;;;;;12.30;10.20;;;;;;;17.11;37.67;100275.91;5092498;28;20468;-65
2022/04/24 09:17:35;;;;;;;19.35;10.77;;;;;;;17.15;37.35;100277.75;5088091;28;20024;-65
2022/04/24 09:20:01;;;;;;;17.25;10.15;;;;;;;17.13;37.28;100282.00;5087184;28;20117;-66
2022/04/24 09:22:27;;;;;;;26.98;11.32;;;;;;;17.14;37.37;100290.13;5086170;28;20506;-63
2022/04/24 09:24:59;;;;;;;15.02;10.45;;;;;;;17.10;37.39;100283.47;5085574;28;20024;-63
2022/04/24 09:27:30;;;;;;;13.38;10.65;;;;;;;17.12;37.35;100278.38;5087491;28;20116;-62
2022/04/24 09:30:13;;;;;;;11.82;10.05;;;;;;;17.13;37.01;100287.63;5086593;28;20497;-62
2022/04/24 09:32:44;;;;;;;12.00;10.60;;;;;;;17.12;37.65;100289.59;5076060;28;20551;-62
2022/04/24 09:35:09;;;;;;;12.98;10.50;;;;;;;17.20;37.12;100276.81;5091650;28;20038;-62
2022/04/24 09:37:41;;;;;;;15.13;11.20;;;;;;;17.25;37.82;100282.34;5087816;28;20036;-63
2022/04/24 09:40:07;;;;;;;;;;;;;;;17.35;37.81;100292.50;5089927;28;20046;-62
2022/04/24 09:42:32;;;;;;;12.80;11.20;;;;;;;17.33;36.53;100292.84;5085742;28;20394;-63
2022/04/24 09:45:01;;;;;;;11.90;10.70;;;;;;;17.38;36.62;100283.47;5087255;28;20580;-63
2022/04/24 09:47:27;;;;;;;13.43;11.60;;;;;;;17.42;36.84;100278.91;5089843;28;20032;-64
2022/04/24 09:49:56;;;;;;;14.50;10.30;;;;;;;17.46;36.51;100276.31;5091513;28;20506;-63
2022/04/24 09:52:23;;;;;;;11.73;10.63;;;;;;;17.52;36.66;100283.44;5077506;28;20032;-64
2022/04/24 09:54:53;;;;;;;14.20;10.75;;;;;;;17.58;36.39;100283.03;5086657;28;20024;-62
2022/04/24 09:57:20;;;;;;;19.23;11.40;;;;;;;17.63;36.78;100285.72;5083213;28;20036;-63
2022/04/24 09:59:53;;;;;;;18.30;11.25;;;;;;;17.68;37.03;100276.34;5088832;28;20131;-63
2022/04/24 10:02:20;;;;;;;14.52;10.82;;;;;;;17.79;36.54;100291.84;5089067;28;20086;-63
2022/04/24 10:04:46;;;;;;;16.35;11.35;;;;;;;17.77;35.36;100280.13;5073283;28;20036;-62
2022/04/24 10:07:16;;;;;;;14.50;10.88;;;;;;;17.79;35.82;100288.22;5077112;28;20028;-63
2022/04/24 10:09:46;;;;;;;15.90;11.27;;;;;;;17.86;37.04;100283.84;5096644;28;20081;-62
2022/04/24 10:12:15;;;;;;;13.00;11.80;;;;;;;17.89;35.60;100277.59;5082216;28;20036;-62
2022/04/24 10:14:50;;;;;;;12.20;10.93;;;;;;;17.97;36.24;100278.00;5080835;28;20036;-64
2022/04/24 10:17:37;;;;;;;13.52;11.85;;;;;;;17.98;36.01;100269.25;5082982;28;20388;-63
2022/04/24 10:20:21;;;;;;;15.02;11.73;;;;;;;18.04;36.11;100281.22;5079850;28;20052;-63
2022/04/24 10:22:49;;;;;;;13.52;11.85;;;;;;;18.01;35.73;100279.03;5083544;28;20105;-63
2022/04/24 10:25:37;;;;;;;13.18;11.90;;;;;;;18.01;35.89;100291.09;5083743;28;20023;-65
2022/04/24 10:28:12;;;;;;;13.80;12.40;;;;;;;17.90;35.77;100284.88;5087429;28;20066;-61
2022/04/24 10:30:37;;;;;;;21.48;11.55;;;;;;;17.87;35.40;100290.28;5084791;28;20054;-62
2022/04/24 10:33:18;;;;;;;12.90;11.00;;;;;;;17.92;35.76;100293.00;5083977;28;20623;-64
2022/04/24 10:35:51;;;;;;;12.73;11.43;;;;;;;17.90;35.52;100293.28;5083693;28;20074;-62
2022/04/24 10:38:19;;;;;;;12.20;11.00;;;;;;;17.89;35.01;100280.41;5082936;28;20429;-63
2022/04/24 10:41:06;;;;;;;12.40;11.07;;;;;;;18.01;36.07;100291.09;5087967;28;20026;-64
2022/04/24 10:43:36;;;;;;;12.27;10.98;;;;;;;17.96;34.55;100288.41;5085806;28;20798;-64
2022/04/24 10:46:02;;;;;;;11.60;10.15;;;;;;;17.98;35.36;100274.03;5087740;28;20016;-62
2022/04/24 10:48:33;;;;;;;10.82;9.77;;;;;;;18.03;35.35;100294.41;5083284;28;20032;-62
2022/04/24 10:50:59;;;;;;;10.02;8.82;;;;;;;18.09;35.32;100292.31;5085963;28;20058;-62
2022/04/24 10:53:25;;;;;;;12.55;9.60;;;;;;;18.19;34.81;100288.41;5086589;28;20285;-64
2022/04/24 10:55:50;;;;;;;11.40;9.27;;;;;;;18.20;34.28;100296.53;5081987;28;20476;-63
2022/04/24 10:58:28;;;;;;;10.50;9.35;;;;;;;18.22;34.08;100288.63;5085675;28;20025;-63
2022/04/24 11:00:53;;;;;;;13.60;9.45;;;;;;;18.20;33.46;100285.31;5082798;28;20487;-62
2022/04/24 11:03:19;;;;;;;10.52;9.38;;;;;;;18.20;34.02;100287.28;5083850;28;20093;-63
2022/04/24 11:05:46;;;;;;;9.57;8.43;;;;;;;18.25;34.03;100301.19;5084341;28;20028;-62
2022/04/24 11:08:23;;;;;;;10.63;9.05;;;;;;;18.21;33.76;100297.38;5081730;28;20441;-63
2022/04/24 11:10:49;;;;;;;9.48;8.57;;;;;;;18.20;33.58;100293.72;5075138;28;20036;-63
2022/04/24 11:13:18;;;;;;;9.80;8.80;;;;;;;18.17;33.80;100287.91;5092199;28;20038;-63
2022/04/24 11:15:45;;;;;;;11.65;9.27;;;;;;;18.19;34.75;100294.84;5084612;28;20096;-63
2022/04/24 11:18:36;;;;;;;15.77;10.77;;;;;;;18.21;34.98;100294.56;5084966;28;20028;-63